createdAt,value
2022-12-09T00:00:51.172Z,97587.78
2022-12-09T00:01:54.284Z,97590.13
2022-12-09T00:02:57.330Z,97583.66
2022-12-09T00:04:00.821Z,97596.56
2022-12-09T00:05:04.415Z,97591.50
2022-12-09T00:06:23.265Z,97593.69
2022-12-09T00:07:26.085Z,97589.19
2022-12-09T00:08:29.203Z,97594.91
2022-12-09T00:09:32.176Z,97583.34
2022-12-09T00:10:35.139Z,97574.88
2022-12-09T00:11:38.028Z,97572.47
2022-12-09T00:12:40.887Z,97567.56
2022-12-09T00:13:43.914Z,97567.22
2022-12-09T00:14:46.654Z,97563.94
2022-12-09T00:15:49.630Z,97568.41
2022-12-09T00:16:52.781Z,97563.22
2022-12-09T00:17:55.664Z,97559.34
2022-12-09T00:18:59.090Z,97563.47
2022-12-09T00:20:02.207Z,97569.66
2022-12-09T00:21:20.067Z,97580.75
2022-12-09T00:22:27.854Z,97586.00
2022-12-09T00:23:30.700Z,97599.34
2022-12-09T00:24:33.905Z,97603.19
2022-12-09T00:25:36.921Z,97605.53
2022-12-09T00:26:40.888Z,97615.44
2022-12-09T00:27:43.704Z,97617.75
2022-12-09T00:28:47.032Z,97615.34
2022-12-09T00:29:49.915Z,97618.34
2022-12-09T00:30:52.893Z,97620.12
2022-12-09T00:31:56.040Z,97621.50
2022-12-09T00:32:59.224Z,97615.63
2022-12-09T00:34:05.208Z,97612.62
2022-12-09T00:35:08.698Z,97612.66
2022-12-09T00:36:15.016Z,97608.53
2022-12-09T00:37:18.583Z,97616.25
2022-12-09T00:38:21.458Z,97612.91
2022-12-09T00:39:24.408Z,97614.41
2022-12-09T00:40:27.352Z,97612.38
2022-12-09T00:41:30.983Z,97608.63
2022-12-09T00:42:33.993Z,97603.53
2022-12-09T00:43:37.513Z,97605.31
2022-12-09T00:44:40.476Z,97604.22
2022-12-09T00:45:43.488Z,97602.91
2022-12-09T00:46:46.431Z,97600.56
2022-12-09T00:47:49.908Z,97604.22
2022-12-09T00:48:53.013Z,97602.59
2022-12-09T00:49:55.884Z,97600.06
2022-12-09T00:50:58.893Z,97601.66
2022-12-09T00:52:01.733Z,97595.72
2022-12-09T00:53:04.472Z,97598.19
2022-12-09T00:54:07.774Z,97598.09
2022-12-09T00:55:11.186Z,97590.56
2022-12-09T00:56:14.561Z,97595.62
2022-12-09T00:57:17.699Z,97595.56
2022-12-09T00:58:20.910Z,97597.44
2022-12-09T00:59:24.080Z,97595.62
2022-12-09T01:00:27.009Z,97597.78
2022-12-09T01:01:30.468Z,97603.00
2022-12-09T01:02:33.881Z,97610.25
2022-12-09T01:03:37.068Z,97606.72
2022-12-09T01:04:40.711Z,97607.69
2022-12-09T01:05:44.870Z,97604.66
2022-12-09T01:06:52.183Z,97616.75
2022-12-09T01:07:55.363Z,97612.97
2022-12-09T01:08:58.687Z,97601.84
2022-12-09T01:10:01.914Z,97611.47
2022-12-09T01:11:22.455Z,97603.16
2022-12-09T01:12:25.280Z,97609.91
2022-12-09T01:13:28.022Z,97608.59
2022-12-09T01:14:31.034Z,97612.22
2022-12-09T01:15:34.300Z,97609.13
2022-12-09T01:16:37.677Z,97610.16
2022-12-09T01:17:40.945Z,97611.16
2022-12-09T01:18:45.197Z,97605.50
2022-12-09T01:19:48.245Z,97603.00
2022-12-09T01:20:58.890Z,97605.53
2022-12-09T01:22:02.042Z,97602.88
2022-12-09T01:23:05.287Z,97602.84
2022-12-09T01:24:10.847Z,97605.34
2022-12-09T01:25:14.099Z,97613.13
2022-12-09T01:26:17.286Z,97612.81
2022-12-09T01:27:20.537Z,97607.91
2022-12-09T01:28:23.673Z,97603.91
2022-12-09T01:29:26.541Z,97609.59
2022-12-09T01:30:29.561Z,97604.31
2022-12-09T01:31:32.558Z,97598.13
2022-12-09T01:32:35.714Z,97605.91
2022-12-09T01:33:39.404Z,97599.19
2022-12-09T01:34:43.042Z,97596.66
2022-12-09T01:35:45.939Z,97597.44
2022-12-09T01:36:49.007Z,97603.75
2022-12-09T01:37:52.006Z,97607.59
2022-12-09T01:38:57.661Z,97596.88
2022-12-09T01:40:00.659Z,97590.22
2022-12-09T01:41:04.251Z,97587.88
2022-12-09T01:42:07.513Z,97580.84
2022-12-09T01:43:18.659Z,97582.53
2022-12-09T01:44:24.324Z,97579.78
2022-12-09T01:45:32.814Z,97580.28
2022-12-09T01:46:35.778Z,97571.81
2022-12-09T01:47:39.124Z,97577.25
2022-12-09T01:48:47.239Z,97575.38
2022-12-09T01:49:50.478Z,97583.19
2022-12-09T01:50:57.643Z,97580.13
2022-12-09T01:52:11.608Z,97582.25
2022-12-09T01:53:16.320Z,97583.06
2022-12-09T01:54:19.372Z,97585.75
2022-12-09T01:55:22.763Z,97598.53
2022-12-09T01:56:30.386Z,97594.81
2022-12-09T01:57:34.014Z,97589.62
2022-12-09T01:58:37.327Z,97594.53
2022-12-09T01:59:41.375Z,97591.22
2022-12-09T02:00:45.200Z,97597.28
2022-12-09T02:01:53.284Z,97591.91
2022-12-09T02:02:57.282Z,97594.78
2022-12-09T02:04:01.157Z,97591.13
2022-12-09T02:05:05.973Z,97593.34
2022-12-09T02:06:09.726Z,97595.44
2022-12-09T02:07:13.374Z,97602.94
2022-12-09T02:08:20.198Z,97588.16
2022-12-09T02:09:23.381Z,97583.22
2022-12-09T02:10:27.519Z,97590.28
2022-12-09T02:11:45.613Z,97581.09
2022-12-09T02:13:09.458Z,97584.22
2022-12-09T02:14:19.650Z,97584.75
2022-12-09T02:15:29.881Z,97580.03
2022-12-09T02:16:42.188Z,97580.53
2022-12-09T02:18:11.388Z,97576.31
2022-12-09T02:19:41.897Z,97573.22
2022-12-09T02:20:54.135Z,97575.53
2022-12-09T02:22:00.707Z,97580.44
2022-12-09T02:23:18.323Z,97578.63
2022-12-09T02:24:37.933Z,97570.50
2022-12-09T02:25:55.635Z,97569.53
2022-12-09T02:27:14.599Z,97565.94
2022-12-09T02:28:51.683Z,97561.03
2022-12-09T02:30:20.623Z,97567.41
2022-12-09T02:31:33.128Z,97556.56
2022-12-09T02:33:34.085Z,97564.13
2022-12-09T02:34:44.849Z,97555.25
2022-12-09T02:36:02.200Z,97555.25
2022-12-09T02:37:27.000Z,97563.44
2022-12-09T02:38:33.591Z,97562.56
2022-12-09T02:39:47.179Z,97557.31
2022-12-09T02:41:16.692Z,97557.53
2022-12-09T02:42:23.467Z,97555.97
2022-12-09T02:43:31.679Z,97567.34
2022-12-09T02:44:38.195Z,97562.87
2022-12-09T02:45:43.415Z,97574.03
2022-12-09T02:46:47.319Z,97564.50
2022-12-09T02:47:53.948Z,97566.28
2022-12-09T02:48:59.642Z,97560.84
2022-12-09T02:50:08.824Z,97562.37
2022-12-09T02:51:17.149Z,97560.31
2022-12-09T02:52:21.986Z,97566.50
2022-12-09T02:53:26.622Z,97559.84
2022-12-09T02:54:32.055Z,97564.59
2022-12-09T02:55:37.491Z,97558.91
2022-12-09T02:56:45.861Z,97555.97
2022-12-09T02:57:54.064Z,97561.59
2022-12-09T02:59:01.485Z,97555.13
2022-12-09T03:00:08.635Z,97548.47
2022-12-09T03:01:41.460Z,97548.72
2022-12-09T03:02:48.420Z,97555.19
2022-12-09T03:03:54.340Z,97544.09
2022-12-09T03:05:25.098Z,97551.81
2022-12-09T03:06:33.628Z,97554.75
2022-12-09T03:08:06.211Z,97553.22
2022-12-09T03:09:18.505Z,97548.59
2022-12-09T03:10:29.804Z,97551.56
2022-12-09T03:11:33.759Z,97555.44
2022-12-09T03:12:41.318Z,97549.25
2022-12-09T03:14:11.324Z,97538.16
2022-12-09T03:15:18.093Z,97546.87
2022-12-09T03:16:28.296Z,97548.63
2022-12-09T03:17:36.399Z,97555.75
2022-12-09T03:18:45.822Z,97550.38
2022-12-09T03:20:17.353Z,97558.19
2022-12-09T03:21:26.186Z,97561.00
2022-12-09T03:22:33.227Z,97561.53
2022-12-09T03:23:37.529Z,97568.75
2022-12-09T03:24:55.104Z,97573.16
2022-12-09T03:26:00.465Z,97569.16
2022-12-09T03:27:07.872Z,97568.56
2022-12-09T03:28:25.011Z,97568.25
2022-12-09T03:29:31.030Z,97572.81
2022-12-09T03:30:41.108Z,97566.88
2022-12-09T03:31:46.748Z,97567.44
2022-12-09T03:32:52.457Z,97564.47
2022-12-09T03:34:00.699Z,97566.84
2022-12-09T03:35:10.047Z,97566.62
2022-12-09T03:36:16.987Z,97572.72
2022-12-09T03:37:21.870Z,97569.84
2022-12-09T03:38:29.373Z,97566.28
2022-12-09T03:39:37.579Z,97566.56
2022-12-09T03:40:41.994Z,97564.19
2022-12-09T03:41:49.415Z,97558.72
2022-12-09T03:43:26.094Z,97555.44
2022-12-09T03:44:45.247Z,97550.31
2022-12-09T03:45:49.085Z,97548.53
2022-12-09T03:46:52.690Z,97553.91
2022-12-09T03:47:56.388Z,97549.69
2022-12-09T03:48:59.956Z,97554.28
2022-12-09T03:50:03.494Z,97557.62
2022-12-09T03:51:38.215Z,97551.69
2022-12-09T03:52:44.907Z,97551.69
2022-12-09T03:54:30.948Z,97552.22
2022-12-09T03:55:42.672Z,97553.69
2022-12-09T03:56:48.736Z,97561.97
2022-12-09T03:57:55.383Z,97562.19
2022-12-09T03:59:01.811Z,97559.91
2022-12-09T04:00:06.498Z,97565.38
2022-12-09T04:01:11.393Z,97560.69
2022-12-09T04:02:15.792Z,97552.94
2022-12-09T04:03:19.799Z,97558.06
2022-12-09T04:04:23.575Z,97557.84
2022-12-09T04:05:26.491Z,97556.03
2022-12-09T04:06:29.469Z,97557.62
2022-12-09T04:07:38.660Z,97557.34
2022-12-09T04:08:42.598Z,97554.72
2022-12-09T04:09:46.291Z,97557.91
2022-12-09T04:10:49.410Z,97553.25
2022-12-09T04:11:53.079Z,97543.97
2022-12-09T04:12:56.402Z,97545.03
2022-12-09T04:13:59.690Z,97545.91
2022-12-09T04:15:02.788Z,97537.66
2022-12-09T04:16:06.604Z,97538.16
2022-12-09T04:17:11.996Z,97539.66
2022-12-09T04:18:15.470Z,97538.41
2022-12-09T04:19:18.836Z,97540.66
2022-12-09T04:20:22.045Z,97538.87
2022-12-09T04:21:24.973Z,97537.78
2022-12-09T04:22:30.129Z,97535.56
2022-12-09T04:23:42.949Z,97529.59
2022-12-09T04:24:46.596Z,97533.03
2022-12-09T04:25:49.913Z,97530.19
2022-12-09T04:26:53.225Z,97539.72
2022-12-09T04:27:57.609Z,97533.25
2022-12-09T04:29:01.246Z,97540.16
2022-12-09T04:30:05.836Z,97537.56
2022-12-09T04:31:13.766Z,97541.19
2022-12-09T04:32:17.130Z,97539.59
2022-12-09T04:33:20.494Z,97536.72
2022-12-09T04:34:23.877Z,97530.31
2022-12-09T04:35:27.797Z,97536.25
2022-12-09T04:36:31.798Z,97539.63
2022-12-09T04:37:34.938Z,97535.25
2022-12-09T04:38:38.509Z,97537.63
2022-12-09T04:39:42.032Z,97525.94
2022-12-09T04:40:45.466Z,97533.09
2022-12-09T04:41:48.517Z,97530.00
2022-12-09T04:42:51.438Z,97530.59
2022-12-09T04:43:54.800Z,97525.47
2022-12-09T04:44:57.959Z,97523.16
2022-12-09T04:46:03.477Z,97521.63
2022-12-09T04:47:06.527Z,97515.19
2022-12-09T04:48:10.093Z,97521.09
2022-12-09T04:49:13.166Z,97530.06
2022-12-09T04:50:17.297Z,97524.09
2022-12-09T04:51:20.320Z,97529.28
2022-12-09T04:52:23.451Z,97533.16
2022-12-09T04:53:27.941Z,97534.19
2022-12-09T04:54:31.252Z,97531.34
2022-12-09T04:55:34.318Z,97536.03
2022-12-09T04:56:37.480Z,97535.78
2022-12-09T04:57:40.654Z,97545.31
2022-12-09T04:58:45.143Z,97540.69
2022-12-09T04:59:48.441Z,97536.09
2022-12-09T05:00:51.595Z,97529.13
2022-12-09T05:01:54.818Z,97533.03
2022-12-09T05:02:58.174Z,97530.69
2022-12-09T05:04:01.524Z,97527.62
2022-12-09T05:05:05.633Z,97528.38
2022-12-09T05:06:12.745Z,97532.28
2022-12-09T05:07:17.194Z,97515.97
2022-12-09T05:08:21.162Z,97519.34
2022-12-09T05:09:24.660Z,97526.84
2022-12-09T05:10:28.184Z,97524.28
2022-12-09T05:11:31.541Z,97520.38
2022-12-09T05:12:35.023Z,97512.91
2022-12-09T05:13:38.162Z,97516.00
2022-12-09T05:14:41.651Z,97518.81
2022-12-09T05:15:45.090Z,97523.75
2022-12-09T05:17:07.606Z,97524.53
2022-12-09T05:18:11.256Z,97522.50
2022-12-09T05:19:15.106Z,97534.41
2022-12-09T05:20:18.841Z,97530.25
2022-12-09T05:21:22.509Z,97531.53
2022-12-09T05:22:25.652Z,97524.06
2022-12-09T05:23:28.901Z,97521.72
2022-12-09T05:24:32.364Z,97521.72
2022-12-09T05:25:35.583Z,97523.25
2022-12-09T05:26:39.449Z,97520.69
2022-12-09T05:27:42.504Z,97519.66
2022-12-09T05:28:46.351Z,97524.31
2022-12-09T05:29:49.423Z,97515.25
2022-12-09T05:30:52.596Z,97517.88
2022-12-09T05:31:57.554Z,97519.41
2022-12-09T05:33:01.385Z,97520.94
2022-12-09T05:34:04.672Z,97528.72
2022-12-09T05:35:08.683Z,97522.00
2022-12-09T05:36:13.776Z,97517.59
2022-12-09T05:37:17.196Z,97524.84
2022-12-09T05:38:20.323Z,97522.53
2022-12-09T05:39:23.408Z,97520.44
2022-12-09T05:40:26.533Z,97529.25
2022-12-09T05:41:33.809Z,97519.41
2022-12-09T05:42:41.417Z,97519.88
2022-12-09T05:43:45.292Z,97520.16
2022-12-09T05:44:48.803Z,97525.03
2022-12-09T05:45:51.827Z,97521.66
2022-12-09T05:46:54.959Z,97519.09
2022-12-09T05:48:01.606Z,97518.88
2022-12-09T05:49:05.952Z,97513.41
2022-12-09T05:50:10.657Z,97515.16
2022-12-09T05:51:27.144Z,97516.97
2022-12-09T05:52:30.290Z,97514.44
2022-12-09T05:53:34.553Z,97516.28
2022-12-09T05:54:38.164Z,97514.44
2022-12-09T05:55:42.161Z,97506.19
2022-12-09T05:56:48.332Z,97513.12
2022-12-09T05:57:52.188Z,97503.81
2022-12-09T05:58:56.457Z,97516.25
2022-12-09T06:00:00.092Z,97505.91
2022-12-09T06:01:08.143Z,97509.28
2022-12-09T06:02:11.122Z,97500.19
2022-12-09T06:03:15.410Z,97504.84
2022-12-09T06:04:18.753Z,97504.34
2022-12-09T06:05:22.078Z,97505.38
2022-12-09T06:07:44.022Z,97503.53
2022-12-09T06:08:49.560Z,97503.03
2022-12-09T06:09:54.028Z,97502.50
2022-12-09T06:10:57.432Z,97503.31
2022-12-09T06:12:00.683Z,97507.75
2022-12-09T06:13:03.721Z,97502.53
2022-12-09T06:14:11.593Z,97508.25
2022-12-09T06:15:21.265Z,97512.34
2022-12-09T06:16:25.086Z,97503.59
2022-12-09T06:17:28.489Z,97495.56
2022-12-09T06:18:32.197Z,97501.22
2022-12-09T06:19:35.855Z,97494.22
2022-12-09T06:20:42.606Z,97499.94
2022-12-09T06:21:46.102Z,97494.53
2022-12-09T06:22:49.151Z,97499.88
2022-12-09T06:23:53.009Z,97493.94
2022-12-09T06:24:57.360Z,97487.53
2022-12-09T06:26:00.852Z,97489.31
2022-12-09T06:27:04.142Z,97490.59
2022-12-09T06:28:07.459Z,97500.47
2022-12-09T06:29:11.090Z,97498.66
2022-12-09T06:30:14.960Z,97492.41
2022-12-09T06:31:19.001Z,97495.50
2022-12-09T06:32:22.584Z,97488.50
2022-12-09T06:33:52.873Z,97497.31
2022-12-09T06:34:49.426Z,97497.06
2022-12-09T06:35:52.791Z,97504.56
2022-12-09T06:36:56.002Z,97499.84
2022-12-09T06:37:59.264Z,97506.06
2022-12-09T06:39:10.014Z,97502.22
2022-12-09T06:40:14.147Z,97507.38
2022-12-09T06:41:17.969Z,97504.47
2022-12-09T06:42:24.379Z,97503.69
2022-12-09T06:43:27.743Z,97497.56
2022-12-09T06:44:32.044Z,97506.34
2022-12-09T06:45:36.589Z,97506.84
2022-12-09T06:46:40.642Z,97502.97
2022-12-09T06:47:44.366Z,97494.94
2022-12-09T06:48:48.081Z,97492.84
2022-12-09T06:49:51.646Z,97489.78
2022-12-09T06:50:55.006Z,97500.41
2022-12-09T06:51:58.267Z,97489.81
2022-12-09T06:53:01.413Z,97496.00
2022-12-09T06:54:04.668Z,97489.53
2022-12-09T06:55:09.263Z,97496.81
2022-12-09T06:56:13.791Z,97488.81
2022-12-09T06:57:17.212Z,97484.94
2022-12-09T06:58:20.436Z,97492.94
2022-12-09T06:59:23.606Z,97490.12
2022-12-09T07:00:27.512Z,97484.19
2022-12-09T07:01:30.868Z,97487.78
2022-12-09T07:02:39.004Z,97488.81
2022-12-09T07:03:46.997Z,97490.31
2022-12-09T07:04:55.458Z,97489.03
2022-12-09T07:05:58.758Z,97481.28
2022-12-09T07:07:02.294Z,97486.72
2022-12-09T07:08:06.148Z,97483.66
2022-12-09T07:09:13.083Z,97473.03
2022-12-09T07:10:16.838Z,97476.16
2022-12-09T07:11:20.162Z,97479.53
2022-12-09T07:12:23.375Z,97478.00
2022-12-09T07:13:26.480Z,97476.38
2022-12-09T07:14:29.635Z,97486.25
2022-12-09T07:15:32.879Z,97483.13
2022-12-09T07:16:36.978Z,97479.78
2022-12-09T07:17:40.830Z,97477.97
2022-12-09T07:18:43.999Z,97472.53
2022-12-09T07:19:48.267Z,97475.38
2022-12-09T07:20:51.289Z,97473.31
2022-12-09T07:21:54.483Z,97475.91
2022-12-09T07:22:57.517Z,97473.34
2022-12-09T07:24:03.726Z,97484.94
2022-12-09T07:25:07.640Z,97478.22
2022-12-09T07:26:11.931Z,97473.84
2022-12-09T07:27:19.630Z,97474.62
2022-12-09T07:28:23.353Z,97469.72
2022-12-09T07:29:26.620Z,97476.44
2022-12-09T07:30:30.786Z,97475.41
2022-12-09T07:31:35.520Z,97468.94
2022-12-09T07:32:39.244Z,97475.66
2022-12-09T07:33:42.385Z,97473.09
2022-12-09T07:35:58.949Z,97486.00
2022-12-09T07:37:02.518Z,97481.34
2022-12-09T07:38:06.179Z,97482.41
2022-12-09T07:39:15.456Z,97474.62
2022-12-09T07:40:19.072Z,97478.25
2022-12-09T07:41:23.620Z,97479.56
2022-12-09T07:42:27.621Z,97475.12
2022-12-09T07:43:33.007Z,97476.69
2022-12-09T07:44:35.925Z,97474.38
2022-12-09T07:45:39.483Z,97467.66
2022-12-09T07:46:43.028Z,97473.34
2022-12-09T07:47:46.734Z,97466.62
2022-12-09T07:48:50.341Z,97472.28
2022-12-09T07:49:53.486Z,97465.31
2022-12-09T07:51:03.464Z,97467.12
2022-12-09T07:52:07.035Z,97467.66
2022-12-09T07:53:10.597Z,97469.72
2022-12-09T07:54:15.446Z,97468.16
2022-12-09T07:55:18.580Z,97471.03
2022-12-09T07:56:22.611Z,97477.22
2022-12-09T07:57:26.135Z,97478.25
2022-12-09T07:58:29.917Z,97473.84
2022-12-09T07:59:33.023Z,97473.38
2022-12-09T08:00:36.583Z,97480.09
2022-12-09T08:01:40.812Z,97459.66
2022-12-09T08:02:44.334Z,97463.78
2022-12-09T08:03:49.042Z,97473.62
2022-12-09T08:04:52.864Z,97472.06
2022-12-09T08:05:56.725Z,97471.28
2022-12-09T08:07:01.682Z,97460.16
2022-12-09T08:08:05.377Z,97468.44
2022-12-09T08:09:12.319Z,97460.94
2022-12-09T08:10:15.646Z,97468.47
2022-12-09T08:11:24.516Z,97465.59
2022-12-09T08:12:27.822Z,97454.47
2022-12-09T08:13:31.087Z,97465.34
2022-12-09T08:14:34.180Z,97463.00
2022-12-09T08:15:37.177Z,97460.94
2022-12-09T08:16:41.953Z,97452.94
2022-12-09T08:17:46.430Z,97456.78
2022-12-09T08:18:51.400Z,97436.38
2022-12-09T08:19:54.871Z,97450.88
2022-12-09T08:20:58.781Z,97443.84
2022-12-09T08:22:02.293Z,97443.09
2022-12-09T08:23:05.589Z,97442.06
2022-12-09T08:24:10.413Z,97445.16
2022-12-09T08:25:13.707Z,97448.78
2022-12-09T08:26:19.404Z,97447.50
2022-12-09T08:27:23.268Z,97446.97
2022-12-09T08:28:27.646Z,97445.19
2022-12-09T08:29:31.305Z,97440.25
2022-12-09T08:30:35.002Z,97438.44
2022-12-09T08:31:41.665Z,97437.16
2022-12-09T08:32:45.641Z,97442.06
2022-12-09T08:33:49.111Z,97441.03
2022-12-09T08:34:52.532Z,97441.28
2022-12-09T08:35:55.881Z,97430.13
2022-12-09T08:37:02.233Z,97428.53
2022-12-09T08:38:09.672Z,97419.47
2022-12-09T08:39:14.179Z,97416.87
2022-12-09T08:40:17.384Z,97419.19
2022-12-09T08:41:35.954Z,97423.84
2022-12-09T08:42:39.447Z,97425.69
2022-12-09T08:43:44.359Z,97429.28
2022-12-09T08:44:47.727Z,97423.78
2022-12-09T08:45:50.956Z,97426.91
2022-12-09T08:46:54.035Z,97421.78
2022-12-09T08:47:57.952Z,97423.84
2022-12-09T08:49:04.808Z,97420.19
2022-12-09T08:50:09.455Z,97430.28
2022-12-09T08:51:13.226Z,97413.16
2022-12-09T08:52:16.343Z,97419.38
2022-12-09T08:53:20.392Z,97406.19
2022-12-09T08:54:24.049Z,97407.47
2022-12-09T08:55:27.888Z,97406.19
2022-12-09T08:56:31.437Z,97410.50
2022-12-09T08:57:34.506Z,97403.06
2022-12-09T08:58:37.579Z,97408.00
2022-12-09T08:59:45.203Z,97402.31
2022-12-09T09:00:49.005Z,97401.56
2022-12-09T09:01:52.453Z,97412.41
2022-12-09T09:02:55.840Z,97409.87
2022-12-09T09:04:02.707Z,97406.19
2022-12-09T09:05:07.174Z,97407.56
2022-12-09T09:06:11.307Z,97403.94
2022-12-09T09:07:14.866Z,97401.37
2022-12-09T09:08:18.363Z,97398.53
2022-12-09T09:09:22.299Z,97395.19
2022-12-09T09:10:26.682Z,97393.59
2022-12-09T09:11:30.010Z,97392.59
2022-12-09T09:12:38.996Z,97389.47
2022-12-09T09:13:48.773Z,97382.72
2022-12-09T09:14:53.485Z,97376.22
2022-12-09T09:15:56.447Z,97387.91
2022-12-09T09:17:00.059Z,97372.59
2022-12-09T09:18:03.150Z,97377.78
2022-12-09T09:19:07.008Z,97378.31
2022-12-09T09:20:11.193Z,97382.47
2022-12-09T09:21:18.326Z,97384.97
2022-12-09T09:22:21.635Z,97387.75
2022-12-09T09:23:26.215Z,97384.38
2022-12-09T09:24:29.533Z,97381.81
2022-12-09T09:25:32.590Z,97392.75
2022-12-09T09:26:36.277Z,97391.53
2022-12-09T09:27:39.669Z,97392.59
2022-12-09T09:28:43.854Z,97391.31
2022-12-09T09:29:46.953Z,97397.25
2022-12-09T09:30:51.235Z,97396.22
2022-12-09T09:31:55.407Z,97392.09
2022-12-09T09:33:00.061Z,97383.53
2022-12-09T09:34:03.332Z,97382.28
2022-12-09T09:35:07.202Z,97379.94
2022-12-09T09:36:16.289Z,97385.31
2022-12-09T09:37:20.253Z,97377.53
2022-12-09T09:38:23.177Z,97378.87
2022-12-09T09:39:26.485Z,97381.44
2022-12-09T09:40:31.088Z,97370.28
2022-12-09T09:42:08.231Z,97377.47
2022-12-09T09:43:18.123Z,97364.59
2022-12-09T09:44:38.182Z,97355.28
2022-12-09T09:45:41.730Z,97363.28
2022-12-09T09:46:48.143Z,97360.19
2022-12-09T09:48:06.570Z,97355.53
2022-12-09T09:49:17.296Z,97365.88
2022-12-09T09:50:46.571Z,97366.94
2022-12-09T09:51:50.568Z,97366.41
2022-12-09T09:52:55.268Z,97361.47
2022-12-09T09:54:01.255Z,97363.28
2022-12-09T09:55:16.814Z,97363.25
2022-12-09T09:56:55.244Z,97364.03
2022-12-09T09:58:12.419Z,97356.53
2022-12-09T09:59:31.014Z,97353.94
2022-12-09T10:00:49.241Z,97339.94
2022-12-09T10:02:19.388Z,97330.41
2022-12-09T10:03:52.111Z,97334.03
2022-12-09T10:05:12.079Z,97333.53
2022-12-09T10:06:34.351Z,97338.09
2022-12-09T10:07:44.158Z,97325.72
2022-12-09T10:08:59.570Z,97317.16
2022-12-09T10:10:27.305Z,97313.25
2022-12-09T10:11:42.989Z,97310.91
2022-12-09T10:13:18.528Z,97314.53
2022-12-09T10:14:56.161Z,97312.41
2022-12-09T10:16:24.272Z,97303.87
2022-12-09T10:17:43.253Z,97292.53
2022-12-09T10:19:15.547Z,97300.00
2022-12-09T10:20:23.291Z,97303.13
2022-12-09T10:21:30.123Z,97285.28
2022-12-09T10:22:44.142Z,97287.50
2022-12-09T10:23:48.918Z,97267.84
2022-12-09T10:24:57.168Z,97269.66
2022-12-09T10:26:06.814Z,97276.69
2022-12-09T10:27:27.194Z,97269.44
2022-12-09T10:28:37.177Z,97266.63
2022-12-09T10:30:07.119Z,97266.09
2022-12-09T10:31:11.967Z,97252.16
2022-12-09T10:32:18.899Z,97253.41
2022-12-09T10:33:32.570Z,97247.22
2022-12-09T10:34:36.023Z,97241.28
2022-12-09T10:35:39.824Z,97246.50
2022-12-09T10:36:46.030Z,97241.87
2022-12-09T10:37:52.635Z,97233.56
2022-12-09T10:38:56.121Z,97235.91
2022-12-09T10:40:05.797Z,97228.16
2022-12-09T10:41:49.437Z,97218.63
2022-12-09T10:43:16.044Z,97217.78
2022-12-09T10:44:27.562Z,97210.06
2022-12-09T10:45:52.540Z,97215.44
2022-12-09T10:47:06.197Z,97218.81
2022-12-09T10:48:34.458Z,97211.63
2022-12-09T10:49:37.990Z,97211.06
2022-12-09T10:50:42.220Z,97210.53
2022-12-09T10:51:50.245Z,97203.00
2022-12-09T10:52:53.392Z,97197.56
2022-12-09T10:54:21.736Z,97187.03
2022-12-09T10:55:35.017Z,97185.25
2022-12-09T10:57:00.123Z,97190.41
2022-12-09T10:58:11.737Z,97186.03
2022-12-09T10:59:20.347Z,97193.31
2022-12-09T11:00:29.650Z,97191.25
2022-12-09T11:01:56.791Z,97182.75
2022-12-09T11:03:00.666Z,97183.25
2022-12-09T11:04:14.246Z,97182.78
2022-12-09T11:05:30.281Z,97184.53
2022-12-09T11:06:40.702Z,97175.41
2022-12-09T11:07:49.292Z,97167.44
2022-12-09T11:09:00.419Z,97165.06
2022-12-09T11:10:15.605Z,97166.59
2022-12-09T11:11:19.865Z,97154.44
2022-12-09T11:12:32.124Z,97158.25
2022-12-09T11:13:43.410Z,97155.97
2022-12-09T11:14:55.523Z,97153.06
2022-12-09T11:16:03.867Z,97152.88
2022-12-09T11:17:25.317Z,97137.41
2022-12-09T11:18:32.468Z,97149.72
2022-12-09T11:19:39.879Z,97146.06
2022-12-09T11:20:54.393Z,97147.66
2022-12-09T11:22:41.881Z,97151.78
2022-12-09T11:24:02.538Z,97148.78
2022-12-09T11:25:18.542Z,97153.19
2022-12-09T11:26:32.333Z,97143.69
2022-12-09T11:27:35.609Z,97147.03
2022-12-09T11:28:42.702Z,97146.75
2022-12-09T11:29:46.172Z,97144.91
2022-12-09T11:31:27.245Z,97150.34
2022-12-09T11:32:19.652Z,97147.03
2022-12-09T11:33:36.899Z,97145.22
2022-12-09T11:34:46.978Z,97143.37
2022-12-09T11:35:50.111Z,97150.16
2022-12-09T11:36:56.939Z,97140.91
2022-12-09T11:38:05.010Z,97142.19
2022-12-09T11:39:11.205Z,97137.22
2022-12-09T11:40:19.162Z,97146.56
2022-12-09T11:41:45.434Z,97138.50
2022-12-09T11:42:53.516Z,97127.37
2022-12-09T11:43:57.480Z,97124.19
2022-12-09T11:45:23.145Z,97119.34
2022-12-09T11:46:32.572Z,97104.87
2022-12-09T11:48:22.536Z,97108.09
2022-12-09T11:50:32.619Z,97117.84
2022-12-09T11:51:40.607Z,97106.94
2022-12-09T11:52:44.572Z,97114.78
2022-12-09T11:53:47.877Z,97109.88
2022-12-09T11:55:27.877Z,97117.63
2022-12-09T11:56:32.904Z,97104.66
2022-12-09T11:57:46.576Z,97107.59
2022-12-09T11:59:02.564Z,97106.06
2022-12-09T12:00:15.917Z,97108.31
2022-12-09T12:01:37.002Z,97094.84
2022-12-09T12:02:53.553Z,97094.28
2022-12-09T12:04:01.836Z,97087.59
2022-12-09T12:05:21.691Z,97079.84
2022-12-09T12:06:35.117Z,97083.66
2022-12-09T12:08:27.868Z,97077.03
2022-12-09T12:09:59.522Z,97088.38
2022-12-09T12:11:15.002Z,97084.25
2022-12-09T12:12:39.154Z,97082.44
2022-12-09T12:13:53.150Z,97087.34
2022-12-09T12:15:02.465Z,97082.34
2022-12-09T12:16:12.363Z,97083.63
2022-12-09T12:17:27.895Z,97081.28
2022-12-09T12:18:55.237Z,97085.19
2022-12-09T12:19:58.259Z,97086.75
2022-12-09T12:21:21.009Z,97077.94
2022-12-09T12:22:54.298Z,97085.78
2022-12-09T12:24:35.546Z,97068.13
2022-12-09T12:26:07.267Z,97076.97
2022-12-09T12:27:47.727Z,97067.06
2022-12-09T12:29:16.416Z,97064.25
2022-12-09T12:30:23.620Z,97063.75
2022-12-09T12:32:14.775Z,97055.59
2022-12-09T12:35:39.016Z,97059.81
2022-12-09T12:37:11.947Z,97064.41
2022-12-09T12:38:43.848Z,97054.59
2022-12-09T12:39:58.548Z,97058.53
2022-12-09T12:41:20.380Z,97048.25
2022-12-09T12:43:27.640Z,97041.03
2022-12-09T12:45:08.114Z,97030.59
2022-12-09T12:46:46.007Z,97045.25
2022-12-09T12:48:04.687Z,97058.31
2022-12-09T12:49:30.546Z,97055.69
2022-12-09T12:50:57.405Z,97041.16
2022-12-09T12:54:17.963Z,97051.19
2022-12-09T12:55:57.613Z,97041.66
2022-12-09T12:57:17.504Z,97039.75
2022-12-09T12:58:50.476Z,97031.66
2022-12-09T13:00:19.698Z,97020.91
2022-12-09T13:01:50.387Z,97027.22
2022-12-09T13:03:04.436Z,97018.88
2022-12-09T13:04:17.363Z,97022.28
2022-12-09T13:05:25.403Z,97033.19
2022-12-09T13:06:44.496Z,97015.41
2022-12-09T13:07:53.771Z,97018.75
2022-12-09T13:09:03.570Z,97009.03
2022-12-09T13:10:31.782Z,97021.87
2022-12-09T13:12:03.243Z,97014.50
2022-12-09T13:13:17.496Z,97016.00
2022-12-09T13:14:32.240Z,97022.88
2022-12-09T13:15:48.787Z,97024.91
2022-12-09T13:16:53.122Z,97019.84
2022-12-09T13:17:56.358Z,97025.09
2022-12-09T13:19:28.724Z,97023.88
2022-12-09T13:20:41.248Z,97030.84
2022-12-09T13:21:46.067Z,97031.34
2022-12-09T13:22:58.580Z,97028.50
2022-12-09T13:24:21.784Z,97026.47
2022-12-09T13:25:49.481Z,97028.09
2022-12-09T13:27:27.897Z,97035.00
2022-12-09T13:28:38.431Z,97038.53
2022-12-09T13:29:57.996Z,97040.12
2022-12-09T13:31:09.798Z,97039.59
2022-12-09T13:32:32.078Z,97024.94
2022-12-09T13:33:41.971Z,97036.94
2022-12-09T13:34:51.650Z,97019.91
2022-12-09T13:36:15.765Z,97028.19